Time;durP1;ratioP1;P1;durP2;ratioP2;P2;SDS_P1;SDS_P2;PMS_P1;PMS_P2;Temp;Humidity;BMP_temperature;BMP_pressure;BME280_temperature;BME280_humidity;BME280_pressure;Samples;Min_cycle;Max_cycle;Signal;HPM_P1;HPM_P2
2023/04/09 00:01:40;;;;;;;;;;;;;;;-142.25;100.00;58004.16;4917957;29;19929;-60
2023/04/09 00:04:06;;;;;;;;;;;;;;;-142.25;100.00;58004.16;4917548;29;20271;-62
2023/04/09 00:06:31;;;;;;;;;;;;;;;-142.25;100.00;58004.16;4918462;29;19922;-61
2023/04/09 00:08:57;;;;;;;;;;;;;;;-142.25;100.00;58004.16;4916289;28;20461;-63
2023/04/09 00:11:22;;;;;;;;;;;;;;;-142.25;100.00;58004.16;4918207;29;19923;-62
2023/04/09 00:13:48;;;;;;;;;;;;;;;-142.25;100.00;58004.16;4916132;29;20017;-61
2023/04/09 00:16:13;;;;;;;;;;;;;;;-142.25;100.00;58004.16;4917860;29;20489;-62
2023/04/09 00:18:39;;;;;;;;;;;;;;;-142.25;100.00;58004.16;4917155;29;19994;-62
2023/04/09 00:21:07;;;;;;;;;;;;;;;-142.25;100.00;58004.16;4917505;29;19983;-61
2023/04/09 00:23:33;;;;;;;;;;;;;;;-142.25;100.00;58004.16;4917914;29;19978;-61
2023/04/09 00:25:59;;;;;;;;;;;;;;;-142.25;100.00;58004.16;4918556;29;19926;-62
2023/04/09 00:28:24;;;;;;;;;;;;;;;-142.25;100.00;58004.16;4914628;29;19950;-61
2023/04/09 00:30:50;;;;;;;;;;;;;;;-142.25;100.00;58004.16;4913590;29;20037;-62
2023/04/09 00:33:15;;;;;;;;;;;;;;;-142.25;100.00;58004.16;4915679;29;20209;-61
2023/04/09 00:35:41;;;;;;;;;;;;;;;-142.25;100.00;58004.16;4915529;29;20484;-62
2023/04/09 00:38:07;;;;;;;;;;;;;;;-142.25;100.00;58004.16;4915443;29;20483;-61
2023/04/09 00:40:32;;;;;;;;;;;;;;;-142.25;100.00;58004.16;4913881;29;20297;-62
2023/04/09 00:42:58;;;;;;;;;;;;;;;-142.25;100.00;58004.16;4914149;29;19927;-62
2023/04/09 00:45:23;;;;;;;;;;;;;;;-142.25;100.00;58004.16;4915202;29;19926;-61
2023/04/09 00:47:49;;;;;;;;;;;;;;;-142.25;100.00;58004.16;4915274;29;20458;-62
2023/04/09 00:50:15;;;;;;;;;;;;;;;-142.25;100.00;58004.16;4915248;29;20119;-62
2023/04/09 00:52:41;;;;;;;;;;;;;;;-142.25;100.00;58004.16;4914918;29;20421;-61
2023/04/09 00:55:08;;;;;;;;;;;;;;;-142.25;100.00;58004.16;4928437;29;19985;-62
2023/04/09 00:57:33;;;;;;;;;;;;;;;-142.25;100.00;58004.16;4914589;29;19930;-62
2023/04/09 00:59:59;;;;;;;;;;;;;;;-142.25;100.00;58004.16;4917022;29;20286;-62
2023/04/09 01:02:25;;;;;;;;;;;;;;;-142.25;100.00;58004.16;4914909;29;20537;-62
2023/04/09 01:04:51;;;;;;;;;;;;;;;-142.25;100.00;58004.16;4929113;29;20017;-62
2023/04/09 01:07:40;;;;;;;;;;;;;;;-142.25;100.00;58004.16;4913565;29;19923;-62
2023/04/09 01:10:09;;;;;;;;;;;;;;;-142.25;100.00;58004.16;4912053;29;19936;-61
2023/04/09 01:12:39;;;;;;;;;;;;;;;-142.25;100.00;58004.16;4908304;29;19953;-61
2023/04/09 01:15:07;;;;;;;;;;;;;;;-142.25;100.00;58004.16;4913691;29;19986;-61
2023/04/09 01:17:39;;;;;;;;;;;;;;;-142.25;100.00;58004.16;4915664;29;19971;-61
2023/04/09 01:20:05;;;;;;;;;;;;;;;-142.25;100.00;58004.16;4912807;29;19923;-61
2023/04/09 01:22:54;;;;;;;;;;;;;;;-142.25;100.00;58004.16;4921879;29;19945;-61
2023/04/09 01:25:41;;;;;;;;;;;;;;;-142.25;100.00;58004.16;4912458;29;19923;-61
2023/04/09 01:28:17;;;;;;;;;;;;;;;-142.25;100.00;58004.16;4912240;29;19927;-61
2023/04/09 01:30:46;;;;;;;;;;;;;;;-142.25;100.00;58004.16;4912220;29;19949;-61
2023/04/09 01:33:13;;;;;;;;;;;;;;;-142.25;100.00;58004.16;4911690;29;19926;-61
2023/04/09 01:35:41;;;;;;;;;;;;;;;-142.25;100.00;58004.16;4914265;29;20431;-62
2023/04/09 01:38:08;;;;;;;;;;;;;;;-142.25;100.00;58004.16;4914460;29;19927;-61
2023/04/09 01:40:34;;;;;;;;;;;;;;;-142.25;100.00;58004.16;4913145;29;19927;-62
2023/04/09 01:43:00;;;;;;;;;;;;;;;-142.25;100.00;58004.16;4913248;29;20370;-61
2023/04/09 01:45:26;;;;;;;;;;;;;;;-142.25;100.00;58004.16;4913465;29;19927;-61
2023/04/09 01:47:53;;;;;;;;;;;;;;;-142.25;100.00;58004.16;4912814;29;19927;-61
2023/04/09 01:50:19;;;;;;;;;;;;;;;-142.25;100.00;58004.16;4914762;29;19926;-61
2023/04/09 01:52:45;;;;;;;;;;;;;;;-142.25;100.00;58004.16;4911511;29;19922;-61
2023/04/09 01:55:10;;;;;;;;;;;;;;;-142.25;100.00;58004.16;4911602;29;19927;-61
2023/04/09 01:57:36;;;;;;;;;;;;;;;-142.25;100.00;58004.16;4911747;29;19931;-61
2023/04/09 02:00:02;;;;;;;;;;;;;;;-142.25;100.00;58004.16;4905618;29;19964;-61
2023/04/09 02:02:54;;;;;;;;;;;;;;;-142.25;100.00;58004.16;4914201;29;20501;-60
2023/04/09 02:05:22;;;;;;;;;;;;;;;-142.25;100.00;58004.16;4913833;29;20293;-61
2023/04/09 02:07:51;;;;;;;;;;;;;;;-142.25;100.00;58004.16;4915724;29;19933;-61
2023/04/09 02:10:19;;;;;;;;;;;;;;;-142.25;100.00;58004.16;4913527;29;20025;-60
2023/04/09 02:12:47;;;;;;;;;;;;;;;-142.25;100.00;58004.16;4920896;29;19923;-61
2023/04/09 02:15:13;;;;;;;;;;;;;;;-142.25;100.00;58004.16;4911542;29;19922;-62
2023/04/09 02:17:39;;;;;;;;;;;;;;;-142.25;100.00;58004.16;4913254;29;20237;-61
2023/04/09 02:20:05;;;;;;;;;;;;;;;-142.25;100.00;58004.16;4914795;29;19926;-61
2023/04/09 02:22:30;;;;;;;;;;;;;;;-142.25;100.00;58004.16;4913900;29;19967;-61
2023/04/09 02:24:57;;;;;;;;;;;;;;;-142.25;100.00;58004.16;4929059;29;20017;-62
2023/04/09 02:27:23;;;;;;;;;;;;;;;-142.25;100.00;58004.16;4912624;29;20532;-61
2023/04/09 02:29:49;;;;;;;;;;;;;;;-142.25;100.00;58004.16;4911329;29;20446;-61
2023/04/09 02:32:14;;;;;;;;;;;;;;;-142.25;100.00;58004.16;4911901;29;20390;-60
2023/04/09 02:34:41;;;;;;;;;;;;;;;-142.25;100.00;58004.16;4907250;29;20010;-60
2023/04/09 02:37:06;;;;;;;;;;;;;;;-142.25;100.00;58004.16;4910040;29;19927;-60
2023/04/09 02:39:32;;;;;;;;;;;;;;;-142.25;100.00;58004.16;4913203;29;20308;-60
2023/04/09 02:41:58;;;;;;;;;;;;;;;-142.25;100.00;58004.16;4912010;29;20369;-60
2023/04/09 02:44:25;;;;;;;;;;;;;;;-142.25;100.00;58004.16;4925184;29;20025;-62
2023/04/09 02:46:52;;;;;;;;;;;;;;;-142.25;100.00;58004.16;4909602;29;19961;-60
2023/04/09 02:49:17;;;;;;;;;;;;;;;-142.25;100.00;58004.16;4921448;29;20033;-61
2023/04/09 02:51:43;;;;;;;;;;;;;;;-142.25;100.00;58004.16;4913225;29;20297;-60
2023/04/09 02:54:08;;;;;;;;;;;;;;;-142.25;100.00;58004.16;4926588;29;19934;-60
2023/04/09 02:56:34;;;;;;;;;;;;;;;-142.25;100.00;58004.16;4912872;29;19927;-61
2023/04/09 02:59:00;;;;;;;;;;;;;;;-142.25;100.00;58004.16;4913617;29;20632;-60
2023/04/09 03:01:25;;;;;;;;;;;;;;;-142.25;100.00;58004.16;4921715;29;19927;-61
2023/04/09 03:03:51;;;;;;;;;;;;;;;-142.25;100.00;58004.16;4927238;29;20350;-62
2023/04/09 03:06:17;;;;;;;;;;;;;;;-142.25;100.00;58004.16;4912688;29;20331;-65
2023/04/09 03:08:42;;;;;;;;;;;;;;;-142.25;100.00;58004.16;4918589;29;19959;-63
2023/04/09 03:11:08;;;;;;;;;;;;;;;-142.25;100.00;58004.16;4927246;29;19934;-63
2023/04/09 03:13:34;;;;;;;;;;;;;;;-142.25;100.00;58004.16;4913172;29;20022;-61
2023/04/09 03:15:59;;;;;;;;;;;;;;;-142.25;100.00;58004.16;4913455;29;20342;-60
2023/04/09 03:18:25;;;;;;;;;;;;;;;-142.25;100.00;58004.16;4914098;29;19945;-61
2023/04/09 03:20:51;;;;;;;;;;;;;;;-142.25;100.00;58004.16;4912213;29;20313;-61
2023/04/09 03:23:17;;;;;;;;;;;;;;;-142.25;100.00;58004.16;4915822;29;19931;-61
2023/04/09 03:25:45;;;;;;;;;;;;;;;-142.25;100.00;58004.16;4912186;29;19936;-61
2023/04/09 03:28:14;;;;;;;;;;;;;;;-142.25;100.00;58004.16;4912924;29;19985;-61
2023/04/09 03:30:44;;;;;;;;;;;;;;;-142.25;100.00;58004.16;4912068;29;20026;-61
2023/04/09 03:33:09;;;;;;;;;;;;;;;-142.25;100.00;58004.16;4913314;29;19930;-61
2023/04/09 03:35:49;;;;;;;;;;;;;;;-142.25;100.00;58004.16;4913795;29;19927;-60
2023/04/09 03:38:19;;;;;;;;;;;;;;;-142.25;100.00;58004.16;4910578;29;20380;-61
2023/04/09 03:40:44;;;;;;;;;;;;;;;-142.25;100.00;58004.16;4907289;29;19927;-61
2023/04/09 03:43:10;;;;;;;;;;;;;;;-142.25;100.00;58004.16;4912655;29;20010;-61
2023/04/09 03:45:39;;;;;;;;;;;;;;;-142.25;100.00;58004.16;4914405;29;20053;-61
2023/04/09 03:48:20;;;;;;;;;;;;;;;-142.25;100.00;58004.16;4913122;29;19934;-60
2023/04/09 03:50:45;;;;;;;;;;;;;;;-142.25;100.00;58004.16;4912514;29;19933;-61
2023/04/09 03:53:15;;;;;;;;;;;;;;;-142.25;100.00;58004.16;4911589;29;20354;-61
2023/04/09 03:55:41;;;;;;;;;;;;;;;-142.25;100.00;58004.16;4928669;29;19927;-61
2023/04/09 03:58:14;;;;;;;;;;;;;;;-142.25;100.00;58004.16;4911112;29;19923;-61
2023/04/09 04:00:42;;;;;;;;;;;;;;;-142.25;100.00;58004.16;4913187;29;19966;-61
2023/04/09 04:03:31;;;;;;;;;;;;;;;-142.25;100.00;58004.16;4915605;29;19927;-61
2023/04/09 04:06:26;;;;;;;;;;;;;;;-142.25;100.00;58004.16;4915708;29;19927;-61
2023/04/09 04:09:12;;;;;;;;;;;;;;;-142.25;100.00;58004.16;4918882;29;19984;-61
2023/04/09 04:11:46;;;;;;;;;;;;;;;-142.25;100.00;58004.16;4930971;29;20085;-60
2023/04/09 04:14:12;;;;;;;;;;;;;;;-142.25;100.00;58004.16;4915540;29;19937;-62
2023/04/09 04:16:41;;;;;;;;;;;;;;;-142.25;100.00;58004.16;4915766;29;20515;-62
2023/04/09 04:19:08;;;;;;;;;;;;;;;-142.25;100.00;58004.16;4930577;29;20009;-62
2023/04/09 04:21:40;;;;;;;;;;;;;;;-142.25;100.00;58004.16;4916228;29;20395;-61
2023/04/09 04:24:06;;;;;;;;;;;;;;;-142.25;100.00;58004.16;4915395;29;19926;-61
2023/04/09 04:26:32;;;;;;;;;;;;;;;-142.25;100.00;58004.16;4918133;29;19930;-62
2023/04/09 04:28:57;;;;;;;;;;;;;;;-142.25;100.00;58004.16;4913000;29;20025;-61
2023/04/09 04:31:46;;;;;;;;;;;;;;;-142.25;100.00;58004.16;4913877;29;19927;-61
2023/04/09 04:34:14;;;;;;;;;;;;;;;-142.25;100.00;58004.16;4928713;29;19998;-61
2023/04/09 04:36:42;;;;;;;;;;;;;;;-142.25;100.00;58004.16;4929369;29;19927;-62
2023/04/09 04:39:07;;;;;;;;;;;;;;;-142.25;100.00;58004.16;4914170;29;19997;-61
2023/04/09 04:41:56;;;;;;;;;;;;;;;-142.25;100.00;58004.16;4916320;29;19927;-62
2023/04/09 04:44:24;;;;;;;;;;;;;;;-142.25;100.00;58004.16;4913476;29;20423;-61
2023/04/09 04:46:56;;;;;;;;;;;;;;;-142.25;100.00;58004.16;4913988;29;19954;-61
2023/04/09 04:49:21;;;;;;;;;;;;;;;-142.25;100.00;58004.16;4914574;29;20442;-62
2023/04/09 04:51:47;;;;;;;;;;;;;;;-142.25;100.00;58004.16;4913104;29;20021;-61
2023/04/09 04:54:14;;;;;;;;;;;;;;;-142.25;100.00;58004.16;4927863;29;19927;-61
2023/04/09 04:56:46;;;;;;;;;;;;;;;-142.25;100.00;58004.16;4929862;29;20048;-62
2023/04/09 04:59:23;;;;;;;;;;;;;;;-142.25;100.00;58004.16;4913373;29;20424;-61
2023/04/09 05:01:58;;;;;;;;;;;;;;;-142.25;100.00;58004.16;4914350;29;20198;-61
2023/04/09 05:04:26;;;;;;;;;;;;;;;-142.25;100.00;58004.16;4910472;29;20033;-61
2023/04/09 05:06:53;;;;;;;;;;;;;;;-142.25;100.00;58004.16;4921842;29;19993;-61
2023/04/09 05:09:21;;;;;;;;;;;;;;;-142.25;100.00;58004.16;4920758;29;19949;-61
2023/04/09 05:12:02;;;;;;;;;;;;;;;-142.25;100.00;58004.16;4912982;29;20409;-62
2023/04/09 05:14:28;;;;;;;;;;;;;;;-142.25;100.00;58004.16;4918937;29;19982;-61
2023/04/09 05:16:53;;;;;;;;;;;;;;;-142.25;100.00;58004.16;4925296;29;19930;-61
2023/04/09 05:19:23;;;;;;;;;;;;;;;-142.25;100.00;58004.16;4901343;29;19919;-61
2023/04/09 05:21:55;;;;;;;;;;;;;;;-142.25;100.00;58004.16;4916173;29;19931;-63
2023/04/09 05:24:21;;;;;;;;;;;;;;;-142.25;100.00;58004.16;4927796;29;20477;-62
2023/04/09 05:26:47;;;;;;;;;;;;;;;-142.25;100.00;58004.16;4912892;29;19966;-62
2023/04/09 05:29:12;;;;;;;;;;;;;;;-142.25;100.00;58004.16;4927599;29;19930;-62
2023/04/09 05:31:39;;;;;;;;;;;;;;;-142.25;100.00;58004.16;4927556;29;20124;-61
2023/04/09 05:34:08;;;;;;;;;;;;;;;-142.25;100.00;58004.16;4912614;29;20045;-62
2023/04/09 05:36:41;;;;;;;;;;;;;;;-142.25;100.00;58004.16;4911990;29;20331;-63
2023/04/09 05:39:07;;;;;;;;;;;;;;;-142.25;100.00;58004.16;4911992;29;19941;-62
2023/04/09 05:41:36;;;;;;;;;;;;;;;-142.25;100.00;58004.16;4913943;29;20183;-61
2023/04/09 05:44:27;;;;;;;;;;;;;;;-142.25;100.00;58004.16;4913685;29;20055;-62
2023/04/09 05:47:13;;;;;;;;;;;;;;;-142.25;100.00;58004.16;4911714;29;19958;-60
2023/04/09 05:49:44;;;;;;;;;;;;;;;-142.25;100.00;58004.16;4911712;29;19982;-61
2023/04/09 05:52:13;;;;;;;;;;;;;;;-142.25;100.00;58004.16;4926549;28;19978;-62
2023/04/09 05:54:39;;;;;;;;;;;;;;;-142.25;100.00;58004.16;4912399;29;19923;-62
2023/04/09 05:57:07;;;;;;;;;;;;;;;-142.25;100.00;58004.16;4912728;29;20305;-62
2023/04/09 05:59:35;;;;;;;;;;;;;;;-142.25;100.00;58004.16;4911252;29;19927;-62
2023/04/09 06:02:01;;;;;;;;;;;;;;;-142.25;100.00;58004.16;4910224;29;20286;-62
2023/04/09 06:04:27;;;;;;;;;;;;;;;-142.25;100.00;58004.16;4907020;29;20205;-63
2023/04/09 06:06:54;;;;;;;;;;;;;;;-142.25;100.00;58004.16;4907359;29;21106;-62
2023/04/09 06:09:19;;;;;;;;;;;;;;;-142.25;100.00;58004.16;4912964;29;19926;-62
2023/04/09 06:11:45;;;;;;;;;;;;;;;-142.25;100.00;58004.16;4926521;29;20405;-63
2023/04/09 06:14:16;;;;;;;;;;;;;;;-142.25;100.00;58004.16;4910598;29;19927;-63
2023/04/09 06:16:42;;;;;;;;;;;;;;;-142.25;100.00;58004.16;4910465;29;19985;-62
2023/04/09 06:19:07;;;;;;;;;;;;;;;-142.25;100.00;58004.16;4907015;29;20029;-62
2023/04/09 06:21:33;;;;;;;;;;;;;;;-142.25;100.00;58004.16;4916188;29;20006;-62
2023/04/09 06:23:58;;;;;;;;;;;;;;;-142.25;100.00;58004.16;4911220;29;20327;-62
2023/04/09 06:26:24;;;;;;;;;;;;;;;-142.25;100.00;58004.16;4910321;29;19927;-62
2023/04/09 06:28:49;;;;;;;;;;;;;;;-142.25;100.00;58004.16;4911511;29;19927;-61
2023/04/09 06:31:15;;;;;;;;;;;;;;;-142.25;100.00;58004.16;4913293;29;20081;-61
2023/04/09 06:33:40;;;;;;;;;;;;;;;-142.25;100.00;58004.16;4914739;29;20389;-62
2023/04/09 06:36:06;;;;;;;;;;;;;;;-142.25;100.00;58004.16;4912698;29;19927;-60
2023/04/09 06:38:32;;;;;;;;;;;;;;;-142.25;100.00;58004.16;4911674;29;19966;-60
2023/04/09 06:40:57;;;;;;;;;;;;;;;-142.25;100.00;58004.16;4912001;29;19980;-61
2023/04/09 06:43:22;;;;;;;;;;;;;;;-142.25;100.00;58004.16;4912050;29;19968;-60
2023/04/09 06:45:49;;;;;;;;;;;;;;;-142.25;100.00;58004.16;4909526;29;19943;-60
2023/04/09 06:48:15;;;;;;;;;;;;;;;-142.25;100.00;58004.16;4908671;29;20025;-60
2023/04/09 06:50:41;;;;;;;;;;;;;;;-142.25;100.00;58004.16;4920917;29;19947;-60
2023/04/09 06:53:06;;;;;;;;;;;;;;;-142.25;100.00;58004.16;4909820;29;19966;-60
2023/04/09 06:55:32;;;;;;;;;;;;;;;-142.25;100.00;58004.16;4908523;29;19941;-60
2023/04/09 06:57:57;;;;;;;;;;;;;;;-142.25;100.00;58004.16;4911268;29;19973;-60
2023/04/09 07:00:22;;;;;;;;;;;;;;;-142.25;100.00;58004.16;4910192;29;19993;-61
2023/04/09 07:02:48;;;;;;;;;;;;;;;-142.25;100.00;58004.16;4911876;29;20403;-61
2023/04/09 07:05:14;;;;;;;;;;;;;;;-142.25;100.00;58004.16;4912087;29;19939;-61
2023/04/09 07:07:39;;;;;;;;;;;;;;;-142.25;100.00;58004.16;4925625;29;20396;-61
2023/04/09 07:10:05;;;;;;;;;;;;;;;-142.25;100.00;58004.16;4911666;29;19953;-61
2023/04/09 07:12:32;;;;;;;;;;;;;;;-142.25;100.00;58004.16;4912280;29;19945;-61
2023/04/09 07:14:58;;;;;;;;;;;;;;;-142.25;100.00;58004.16;4911085;29;20510;-61
2023/04/09 07:17:23;;;;;;;;;;;;;;;-142.25;100.00;58004.16;4910779;29;19937;-62
2023/04/09 07:19:50;;;;;;;;;;;;;;;-142.25;100.00;58004.16;4911476;29;19941;-62
2023/04/09 07:22:16;;;;;;;;;;;;;;;-142.25;100.00;58004.16;4924393;29;19955;-62
2023/04/09 07:24:42;;;;;;;;;;;;;;;-142.25;100.00;58004.16;4909143;29;19963;-61
2023/04/09 07:27:08;;;;;;;;;;;;;;;-142.25;100.00;58004.16;4911235;29;20376;-61
2023/04/09 07:29:34;;;;;;;;;;;;;;;-142.25;100.00;58004.16;4927724;29;19941;-61
2023/04/09 07:32:01;;;;;;;;;;;;;;;-142.25;100.00;58004.16;4911573;29;19938;-61
2023/04/09 07:34:26;;;;;;;;;;;;;;;-142.25;100.00;58004.16;4910426;29;20353;-62
2023/04/09 07:36:52;;;;;;;;;;;;;;;-142.25;100.00;58004.16;4911805;29;19948;-60
2023/04/09 07:39:19;;;;;;;;;;;;;;;-142.25;100.00;58004.16;4913378;29;19941;-60
2023/04/09 07:41:46;;;;;;;;;;;;;;;-142.25;100.00;58004.16;4914108;29;20228;-60
2023/04/09 07:44:12;;;;;;;;;;;;;;;-142.25;100.00;58004.16;4913755;29;19937;-65
2023/04/09 07:46:38;;;;;;;;;;;;;;;-142.25;100.00;58004.16;4914005;29;20277;-65
2023/04/09 07:49:04;;;;;;;;;;;;;;;-142.25;100.00;58004.16;4915432;29;19939;-65
2023/04/09 07:51:30;;;;;;;;;;;;;;;-142.25;100.00;58004.16;4917470;29;20415;-65
2023/04/09 07:53:55;;;;;;;;;;;;;;;-142.25;100.00;58004.16;4913426;29;20064;-65
2023/04/09 07:56:21;;;;;;;;;;;;;;;-142.25;100.00;58004.16;4916662;29;19939;-65
2023/04/09 07:58:48;;;;;;;;;;;;;;;-142.25;100.00;58004.16;4914160;29;20370;-66
2023/04/09 08:01:13;;;;;;;;;;;;;;;-142.25;100.00;58004.16;4917607;29;19959;-65
2023/04/09 08:03:39;;;;;;;;;;;;;;;-142.25;100.00;58004.16;4914939;29;20044;-65
2023/04/09 08:06:05;;;;;;;;;;;;;;;-142.25;100.00;58004.16;4914361;29;20399;-65
2023/04/09 08:08:30;;;;;;;;;;;;;;;-142.25;100.00;58004.16;4912810;29;20091;-65
2023/04/09 08:10:55;;;;;;;;;;;;;;;-142.25;100.00;58004.16;4914775;29;20030;-64
2023/04/09 08:13:22;;;;;;;;;;;;;;;-142.25;100.00;58004.16;4914913;29;19957;-60
2023/04/09 08:15:48;;;;;;;;;;;;;;;-142.25;100.00;58004.16;4921979;29;20349;-60
2023/04/09 08:18:13;;;;;;;;;;;;;;;-142.25;100.00;58004.16;4915147;29;19943;-60
2023/04/09 08:20:43;;;;;;;;;;;;;;;-142.25;100.00;58004.16;4910003;29;20016;-61
2023/04/09 08:23:09;;;;;;;;;;;;;;;-142.25;100.00;58004.16;4906405;29;19946;-61
2023/04/09 08:25:35;;;;;;;;;;;;;;;-142.25;100.00;58004.16;4914790;29;19943;-60
2023/04/09 08:28:01;;;;;;;;;;;;;;;-142.25;100.00;58004.16;4914588;29;19953;-60
2023/04/09 08:30:27;;;;;;;;;;;;;;;-142.25;100.00;58004.16;4913643;29;19970;-61
2023/04/09 08:32:52;;;;;;;;;;;;;;;-142.25;100.00;58004.16;4913291;29;19923;-61
2023/04/09 08:35:18;;;;;;;;;;;;;;;-142.25;100.00;58004.16;4915380;29;20336;-60
2023/04/09 08:37:43;;;;;;;;;;;;;;;-142.25;100.00;58004.16;4915321;29;19952;-60
2023/04/09 08:40:09;;;;;;;;;;;;;;;-142.25;100.00;58004.16;4915666;29;19933;-61
2023/04/09 08:42:36;;;;;;;;;;;;;;;-142.25;100.00;58004.16;4913903;29;19968;-61
2023/04/09 08:45:04;;;;;;;;;;;;;;;-142.25;100.00;58004.16;4911682;29;19989;-61
2023/04/09 08:47:31;;;;;;;;;;;;;;;-142.25;100.00;58004.16;4913382;29;20090;-62
2023/04/09 08:49:56;;;;;;;;;;;;;;;-142.25;100.00;58004.16;4912431;29;19941;-62
2023/04/09 08:52:32;;;;;;;;;;;;;;;-142.25;100.00;58004.16;4912279;29;19962;-62
2023/04/09 08:54:58;;;;;;;;;;;;;;;-142.25;100.00;58004.16;4913215;29;19959;-62
2023/04/09 08:57:23;;;;;;;;;;;;;;;-142.25;100.00;58004.16;4910276;29;19969;-64
2023/04/09 08:59:49;;;;;;;;;;;;;;;-142.25;100.00;58004.16;4910173;29;20022;-63
2023/04/09 09:02:14;;;;;;;;;;;;;;;-142.25;100.00;58004.16;4917243;29;19937;-63
2023/04/09 09:05:00;;;;;;;;;;;;;;;-142.25;100.00;58004.16;4913929;29;20698;-63
2023/04/09 09:07:26;;;;;;;;;;;;;;;-142.25;100.00;58004.16;4914172;29;19937;-62
2023/04/09 09:09:55;;;;;;;;;;;;;;;-142.25;100.00;58004.16;4919821;29;19969;-62
2023/04/09 09:12:30;;;;;;;;;;;;;;;-142.25;100.00;58004.16;4922885;29;19943;-66
2023/04/09 09:14:56;;;;;;;;;;;;;;;-142.25;100.00;58004.16;4919929;29;19950;-62
2023/04/09 09:17:22;;;;;;;;;;;;;;;-142.25;100.00;58004.16;4922987;29;19946;-63
2023/04/09 09:19:47;;;;;;;;;;;;;;;-142.25;100.00;58004.16;4924988;29;19997;-62
2023/04/09 09:22:13;;;;;;;;;;;;;;;-142.25;100.00;58004.16;4922868;29;20024;-62
2023/04/09 09:24:45;;;;;;;;;;;;;;;-142.25;100.00;58004.16;4924621;29;20535;-62
2023/04/09 09:27:11;;;;;;;;;;;;;;;-142.25;100.00;58004.16;4926558;29;19973;-61
2023/04/09 09:29:40;;;;;;;;;;;;;;;-142.25;100.00;58004.16;4920170;29;19994;-64
2023/04/09 09:32:11;;;;;;;;;;;;;;;-142.25;100.00;58004.16;4915688;29;19935;-64
2023/04/09 09:34:37;;;;;;;;;;;;;;;-142.25;100.00;58004.16;4913983;29;19953;-63
2023/04/09 09:37:22;;;;;;;;;;;;;;;-142.25;100.00;58004.16;4906803;29;20374;-64
2023/04/09 09:39:48;;;;;;;;;;;;;;;-142.25;100.00;58004.16;4910753;29;19937;-62
2023/04/09 09:42:13;;;;;;;;;;;;;;;-142.25;100.00;58004.16;4911974;29;19987;-62
2023/04/09 09:44:42;;;;;;;;;;;;;;;-142.25;100.00;58004.16;4913449;29;19957;-62
2023/04/09 09:47:08;;;;;;;;;;;;;;;-142.25;100.00;58004.16;4916297;29;20495;-61
2023/04/09 09:49:33;;;;;;;;;;;;;;;-142.25;100.00;58004.16;4913683;29;20363;-62
2023/04/09 09:52:01;;;;;;;;;;;;;;;-142.25;100.00;58004.16;4915072;29;19983;-62
2023/04/09 09:54:30;;;;;;;;;;;;;;;-142.25;100.00;58004.16;4913284;29;19981;-62
2023/04/09 09:57:03;;;;;;;;;;;;;;;-142.25;100.00;58004.16;4932205;29;20409;-64
2023/04/09 09:59:36;;;;;;;;;;;;;;;-142.25;100.00;58004.16;4911669;29;19930;-63
2023/04/09 10:02:06;;;;;;;;;;;;;;;-142.25;100.00;58004.16;4911715;29;19927;-63
2023/04/09 10:04:34;;;;;;;;;;;;;;;-142.25;100.00;58004.16;4914654;29;19927;-64
2023/04/09 10:07:02;;;;;;;;;;;;;;;-142.25;100.00;58004.16;4914120;29;19946;-63
2023/04/09 10:09:27;;;;;;;;;;;;;;;-142.25;100.00;58004.16;4914661;29;19927;-62
2023/04/09 10:11:54;;;;;;;;;;;;;;;-142.25;100.00;58004.16;4914107;29;19927;-62
2023/04/09 10:14:20;;;;;;;;;;;;;;;-142.25;100.00;58004.16;4913371;29;19922;-63
2023/04/09 10:16:46;;;;;;;;;;;;;;;-142.25;100.00;58004.16;4912752;29;20685;-62
2023/04/09 10:19:13;;;;;;;;;;;;;;;-142.25;100.00;58004.16;4912254;29;19954;-61
2023/04/09 10:21:47;;;;;;;;;;;;;;;-142.25;100.00;58004.16;4912824;29;20471;-63
2023/04/09 10:24:14;;;;;;;;;;;;;;;-142.25;100.00;58004.16;4911413;29;19929;-60
2023/04/09 10:26:40;;;;;;;;;;;;;;;-142.25;100.00;58004.16;4912672;29;19951;-60
2023/04/09 10:29:08;;;;;;;;;;;;;;;-142.25;100.00;58004.16;4913045;29;20344;-60
2023/04/09 10:31:47;;;;;;;;;;;;;;;-142.25;100.00;58004.16;4909813;29;19966;-60
2023/04/09 10:34:16;;;;;;;;;;;;;;;-142.25;100.00;58004.16;4901023;29;19923;-60
2023/04/09 10:36:43;;;;;;;;;;;;;;;-142.25;100.00;58004.16;4906355;29;19923;-61
2023/04/09 10:39:12;;;;;;;;;;;;;;;-142.25;100.00;58004.16;4912033;29;19922;-60
2023/04/09 10:41:38;;;;;;;;;;;;;;;-142.25;100.00;58004.16;4912439;29;20030;-60
2023/04/09 10:44:20;;;;;;;;;;;;;;;-142.25;100.00;58004.16;4919579;29;20379;-60
2023/04/09 10:46:46;;;;;;;;;;;;;;;-142.25;100.00;58004.16;4912759;29;19926;-62
2023/04/09 10:49:15;;;;;;;;;;;;;;;-142.25;100.00;58004.16;4911267;29;19945;-62
2023/04/09 10:51:41;;;;;;;;;;;;;;;-142.25;100.00;58004.16;4913341;29;19923;-59
2023/04/09 10:54:25;;;;;;;;;;;;;;;-142.25;100.00;58004.16;4911883;29;20400;-59
2023/04/09 10:57:05;;;;;;;;;;;;;;;-142.25;100.00;58004.16;4912933;29;20205;-60
2023/04/09 10:59:31;;;;;;;;;;;;;;;-142.25;100.00;58004.16;4910682;29;20369;-61
2023/04/09 11:01:57;;;;;;;;;;;;;;;-142.25;100.00;58004.16;4913447;29;20001;-60
2023/04/09 11:04:26;;;;;;;;;;;;;;;-142.25;100.00;58004.16;4902306;29;20441;-61
2023/04/09 11:06:53;;;;;;;;;;;;;;;-142.25;100.00;58004.16;4906671;29;20272;-60
2023/04/09 11:09:19;;;;;;;;;;;;;;;-142.25;100.00;58004.16;4909938;29;19918;-61
2023/04/09 11:11:50;;;;;;;;;;;;;;;-142.25;100.00;58004.16;4912931;29;19942;-60
2023/04/09 11:14:19;;;;;;;;;;;;;;;-142.25;100.00;58004.16;4905554;29;20037;-60
2023/04/09 11:16:46;;;;;;;;;;;;;;;-142.25;100.00;58004.16;4912216;29;20354;-60
2023/04/09 11:19:12;;;;;;;;;;;;;;;-142.25;100.00;58004.16;4905018;29;19923;-60
2023/04/09 11:21:44;;;;;;;;;;;;;;;-142.25;100.00;58004.16;4911114;29;20806;-63
2023/04/09 11:24:13;;;;;;;;;;;;;;;-142.25;100.00;58004.16;4914168;29;20507;-60
2023/04/09 11:26:39;;;;;;;;;;;;;;;-142.25;100.00;58004.16;4914619;29;20374;-63
2023/04/09 11:29:08;;;;;;;;;;;;;;;-142.25;100.00;58004.16;4913744;29;19929;-61
2023/04/09 11:31:34;;;;;;;;;;;;;;;-142.25;100.00;58004.16;4914547;29;20541;-64
2023/04/09 11:33:59;;;;;;;;;;;;;;;-142.25;100.00;58004.16;4915400;29;20405;-61
2023/04/09 11:36:26;;;;;;;;;;;;;;;-142.25;100.00;58004.16;4913139;29;20025;-61
2023/04/09 11:38:53;;;;;;;;;;;;;;;-142.25;100.00;58004.16;4913964;29;19926;-62
2023/04/09 11:41:31;;;;;;;;;;;;;;;-142.25;100.00;58004.16;4914759;29;20394;-62
2023/04/09 11:43:57;;;;;;;;;;;;;;;-142.25;100.00;58004.16;4913776;29;20319;-61
2023/04/09 11:46:24;;;;;;;;;;;;;;;-142.25;100.00;58004.16;4919691;29;19923;-64
2023/04/09 11:48:51;;;;;;;;;;;;;;;-142.25;100.00;58004.16;4914115;29;19958;-63
2023/04/09 11:51:17;;;;;;;;;;;;;;;-142.25;100.00;58004.16;4914423;29;20259;-62
2023/04/09 11:53:42;;;;;;;;;;;;;;;-142.25;100.00;58004.16;4915851;29;19923;-62
2023/04/09 11:56:09;;;;;;;;;;;;;;;-142.25;100.00;58004.16;4913205;29;19923;-61
2023/04/09 11:58:35;;;;;;;;;;;;;;;-142.25;100.00;58004.16;4910440;29;19935;-60
2023/04/09 12:01:00;;;;;;;;;;;;;;;-142.25;100.00;58004.16;4912532;29;19922;-68
2023/04/09 12:03:29;;;;;;;;;;;;;;;-142.25;100.00;58004.16;4914665;29;19961;-67
2023/04/09 12:05:55;;;;;;;;;;;;;;;-142.25;100.00;58004.16;4911060;29;19929;-67
2023/04/09 12:08:23;;;;;;;;;;;;;;;-142.25;100.00;58004.16;4903627;29;20650;-67
2023/04/09 12:10:50;;;;;;;;;;;;;;;-142.25;100.00;58004.16;4909580;29;20067;-67
2023/04/09 12:13:16;;;;;;;;;;;;;;;-142.25;100.00;58004.16;4913883;29;20557;-68
2023/04/09 12:15:44;;;;;;;;;;;;;;;-142.25;100.00;58004.16;4915837;29;20122;-67
2023/04/09 12:18:11;;;;;;;;;;;;;;;-142.25;100.00;58004.16;4910928;29;19930;-66
2023/04/09 12:20:44;;;;;;;;;;;;;;;-142.25;100.00;58004.16;4914726;29;20851;-67
2023/04/09 12:23:10;;;;;;;;;;;;;;;-142.25;100.00;58004.16;4913447;29;20818;-67